sensor_id;sensor_type;location;lat;lon;timestamp;temperature;humidity
1830;DHT22;914;48.118;11.600;2023-04-25T00:01:22;10.70;92.70
1830;DHT22;914;48.118;11.600;2023-04-25T00:03:48;10.80;92.70
1830;DHT22;914;48.118;11.600;2023-04-25T00:06:14;11.00;92.70
1830;DHT22;914;48.118;11.600;2023-04-25T00:08:40;11.00;92.40
1830;DHT22;914;48.118;11.600;2023-04-25T00:11:06;10.90;92.30
1830;DHT22;914;48.118;11.600;2023-04-25T00:13:32;10.90;92.50
1830;DHT22;914;48.118;11.600;2023-04-25T00:15:58;10.90;92.40
1830;DHT22;914;48.118;11.600;2023-04-25T00:18:24;10.90;92.40
1830;DHT22;914;48.118;11.600;2023-04-25T00:20:50;11.10;92.60
1830;DHT22;914;48.118;11.600;2023-04-25T00:23:16;11.50;92.10
1830;DHT22;914;48.118;11.600;2023-04-25T00:25:46;11.30;91.70
1830;DHT22;914;48.118;11.600;2023-04-25T00:28:12;11.20;92.00
1830;DHT22;914;48.118;11.600;2023-04-25T00:30:39;11.10;92.00
1830;DHT22;914;48.118;11.600;2023-04-25T00:33:05;11.10;92.20
1830;DHT22;914;48.118;11.600;2023-04-25T00:35:31;10.90;92.20
1830;DHT22;914;48.118;11.600;2023-04-25T00:37:56;10.90;92.60
1830;DHT22;914;48.118;11.600;2023-04-25T00:40:22;10.80;92.60
1830;DHT22;914;48.118;11.600;2023-04-25T00:42:49;10.70;92.60
1830;DHT22;914;48.118;11.600;2023-04-25T00:45:17;10.70;92.80
1830;DHT22;914;48.118;11.600;2023-04-25T00:47:43;10.90;92.70
1830;DHT22;914;48.118;11.600;2023-04-25T00:50:09;10.90;92.30
1830;DHT22;914;48.118;11.600;2023-04-25T00:52:37;11.00;92.50
1830;DHT22;914;48.118;11.600;2023-04-25T00:55:03;10.90;92.30
1830;DHT22;914;48.118;11.600;2023-04-25T00:57:29;10.90;92.30
1830;DHT22;914;48.118;11.600;2023-04-25T00:59:55;10.70;92.50
1830;DHT22;914;48.118;11.600;2023-04-25T01:02:21;10.80;92.60
1830;DHT22;914;48.118;11.600;2023-04-25T01:04:48;10.90;92.40
1830;DHT22;914;48.118;11.600;2023-04-25T01:07:14;10.90;92.20
1830;DHT22;914;48.118;11.600;2023-04-25T01:09:41;10.80;92.20
1830;DHT22;914;48.118;11.600;2023-04-25T01:12:07;10.70;92.40
1830;DHT22;914;48.118;11.600;2023-04-25T01:14:32;10.70;92.40
1830;DHT22;914;48.118;11.600;2023-04-25T01:16:59;10.70;92.70
1830;DHT22;914;48.118;11.600;2023-04-25T01:19:24;10.80;92.20
1830;DHT22;914;48.118;11.600;2023-04-25T01:21:50;10.80;92.10
1830;DHT22;914;48.118;11.600;2023-04-25T01:24:16;10.70;92.10
1830;DHT22;914;48.118;11.600;2023-04-25T01:26:43;10.70;92.30
1830;DHT22;914;48.118;11.600;2023-04-25T01:29:19;10.60;92.30
1830;DHT22;914;48.118;11.600;2023-04-25T01:31:45;10.70;92.50
1830;DHT22;914;48.118;11.600;2023-04-25T01:34:12;10.70;92.30
1830;DHT22;914;48.118;11.600;2023-04-25T01:36:38;10.50;92.20
1830;DHT22;914;48.118;11.600;2023-04-25T01:39:04;10.40;92.50
1830;DHT22;914;48.118;11.600;2023-04-25T01:41:30;10.30;92.40
1830;DHT22;914;48.118;11.600;2023-04-25T01:43:56;10.40;92.70
1830;DHT22;914;48.118;11.600;2023-04-25T01:46:22;10.40;92.40
1830;DHT22;914;48.118;11.600;2023-04-25T01:48:47;10.30;92.70
1830;DHT22;914;48.118;11.600;2023-04-25T01:51:13;10.20;92.90
1830;DHT22;914;48.118;11.600;2023-04-25T01:53:39;10.20;92.70
1830;DHT22;914;48.118;11.600;2023-04-25T01:56:05;10.30;92.70
1830;DHT22;914;48.118;11.600;2023-04-25T01:58:31;10.40;92.50
1830;DHT22;914;48.118;11.600;2023-04-25T02:00:57;10.50;92.40
1830;DHT22;914;48.118;11.600;2023-04-25T02:03:22;10.40;92.30
1830;DHT22;914;48.118;11.600;2023-04-25T02:05:48;10.40;92.30
1830;DHT22;914;48.118;11.600;2023-04-25T02:08:14;10.40;92.40
1830;DHT22;914;48.118;11.600;2023-04-25T02:10:39;10.40;92.30
1830;DHT22;914;48.118;11.600;2023-04-25T02:13:05;10.40;92.30
1830;DHT22;914;48.118;11.600;2023-04-25T02:15:31;10.60;92.20
1830;DHT22;914;48.118;11.600;2023-04-25T02:17:57;10.60;92.10
1830;DHT22;914;48.118;11.600;2023-04-25T02:20:24;10.60;92.10
1830;DHT22;914;48.118;11.600;2023-04-25T02:22:50;10.60;92.10
1830;DHT22;914;48.118;11.600;2023-04-25T02:25:17;10.50;92.00
1830;DHT22;914;48.118;11.600;2023-04-25T02:27:43;10.60;92.20
1830;DHT22;914;48.118;11.600;2023-04-25T02:30:09;10.60;92.10
1830;DHT22;914;48.118;11.600;2023-04-25T02:32:35;10.50;92.20
1830;DHT22;914;48.118;11.600;2023-04-25T02:35:01;10.60;92.20
1830;DHT22;914;48.118;11.600;2023-04-25T02:37:33;10.60;92.10
1830;DHT22;914;48.118;11.600;2023-04-25T02:40:00;10.50;92.20
1830;DHT22;914;48.118;11.600;2023-04-25T02:42:26;10.30;92.40
1830;DHT22;914;48.118;11.600;2023-04-25T02:44:52;10.20;92.50
1830;DHT22;914;48.118;11.600;2023-04-25T02:47:18;10.30;92.60
1830;DHT22;914;48.118;11.600;2023-04-25T02:49:45;10.30;92.50
1830;DHT22;914;48.118;11.600;2023-04-25T02:52:12;10.30;92.40
1830;DHT22;914;48.118;11.600;2023-04-25T02:54:40;10.30;92.40
1830;DHT22;914;48.118;11.600;2023-04-25T02:57:06;10.20;92.50
1830;DHT22;914;48.118;11.600;2023-04-25T02:59:33;10.30;92.90
1830;DHT22;914;48.118;11.600;2023-04-25T03:01:59;10.30;92.50
1830;DHT22;914;48.118;11.600;2023-04-25T03:04:24;10.40;92.40
1830;DHT22;914;48.118;11.600;2023-04-25T03:06:50;10.40;92.30
1830;DHT22;914;48.118;11.600;2023-04-25T03:09:17;10.50;92.10
1830;DHT22;914;48.118;11.600;2023-04-25T03:11:44;10.40;92.00
1830;DHT22;914;48.118;11.600;2023-04-25T03:14:11;10.30;92.30
1830;DHT22;914;48.118;11.600;2023-04-25T03:16:36;10.40;92.70
1830;DHT22;914;48.118;11.600;2023-04-25T03:19:03;10.30;92.00
1830;DHT22;914;48.118;11.600;2023-04-25T03:21:29;10.00;92.20
1830;DHT22;914;48.118;11.600;2023-04-25T03:23:57;10.30;92.60
1830;DHT22;914;48.118;11.600;2023-04-25T03:26:23;10.30;92.30
1830;DHT22;914;48.118;11.600;2023-04-25T03:28:49;10.20;92.80
1830;DHT22;914;48.118;11.600;2023-04-25T03:31:15;10.00;93.30
1830;DHT22;914;48.118;11.600;2023-04-25T03:33:40;9.80;93.70
1830;DHT22;914;48.118;11.600;2023-04-25T03:36:06;9.90;93.60
1830;DHT22;914;48.118;11.600;2023-04-25T03:38:32;10.00;93.30
1830;DHT22;914;48.118;11.600;2023-04-25T03:40:58;9.90;93.90
1830;DHT22;914;48.118;11.600;2023-04-25T03:43:24;9.80;93.80
1830;DHT22;914;48.118;11.600;2023-04-25T03:45:49;10.00;93.40
1830;DHT22;914;48.118;11.600;2023-04-25T03:48:15;9.90;93.70
1830;DHT22;914;48.118;11.600;2023-04-25T03:50:41;9.60;94.20
1830;DHT22;914;48.118;11.600;2023-04-25T03:53:07;9.70;94.10
1830;DHT22;914;48.118;11.600;2023-04-25T03:55:32;9.60;94.40
1830;DHT22;914;48.118;11.600;2023-04-25T03:57:58;9.60;94.50
1830;DHT22;914;48.118;11.600;2023-04-25T04:00:25;9.30;95.10
1830;DHT22;914;48.118;11.600;2023-04-25T04:02:50;9.30;95.20
1830;DHT22;914;48.118;11.600;2023-04-25T04:05:16;9.20;95.40
1830;DHT22;914;48.118;11.600;2023-04-25T04:07:42;9.10;95.60
1830;DHT22;914;48.118;11.600;2023-04-25T04:10:09;9.20;95.70
1830;DHT22;914;48.118;11.600;2023-04-25T04:12:35;9.40;95.60
1830;DHT22;914;48.118;11.600;2023-04-25T04:15:03;9.40;95.60
1830;DHT22;914;48.118;11.600;2023-04-25T04:17:29;9.20;95.60
1830;DHT22;914;48.118;11.600;2023-04-25T04:19:55;9.20;95.90
1830;DHT22;914;48.118;11.600;2023-04-25T04:22:22;9.20;96.00
1830;DHT22;914;48.118;11.600;2023-04-25T04:24:48;9.20;96.00
1830;DHT22;914;48.118;11.600;2023-04-25T04:27:17;9.00;96.70
1830;DHT22;914;48.118;11.600;2023-04-25T04:29:43;9.50;95.90
1830;DHT22;914;48.118;11.600;2023-04-25T04:32:08;9.40;95.90
1830;DHT22;914;48.118;11.600;2023-04-25T04:34:34;9.40;95.80
1830;DHT22;914;48.118;11.600;2023-04-25T04:37:00;9.30;96.00
1830;DHT22;914;48.118;11.600;2023-04-25T04:39:26;9.20;96.20
1830;DHT22;914;48.118;11.600;2023-04-25T04:41:52;9.20;96.30
1830;DHT22;914;48.118;11.600;2023-04-25T04:44:17;9.30;96.40
1830;DHT22;914;48.118;11.600;2023-04-25T04:46:43;9.10;96.70
1830;DHT22;914;48.118;11.600;2023-04-25T04:49:10;9.00;97.10
1830;DHT22;914;48.118;11.600;2023-04-25T04:51:37;9.10;97.00
1830;DHT22;914;48.118;11.600;2023-04-25T04:54:03;9.10;97.00
1830;DHT22;914;48.118;11.600;2023-04-25T04:56:29;9.10;97.10
1830;DHT22;914;48.118;11.600;2023-04-25T04:58:57;9.40;96.80
1830;DHT22;914;48.118;11.600;2023-04-25T05:01:23;9.30;96.70
1830;DHT22;914;48.118;11.600;2023-04-25T05:03:49;9.40;96.40
1830;DHT22;914;48.118;11.600;2023-04-25T05:06:16;9.60;96.30
1830;DHT22;914;48.118;11.600;2023-04-25T05:08:41;9.50;95.90
1830;DHT22;914;48.118;11.600;2023-04-25T05:11:07;9.40;96.80
1830;DHT22;914;48.118;11.600;2023-04-25T05:13:33;9.40;96.40
1830;DHT22;914;48.118;11.600;2023-04-25T05:15:58;9.50;96.50
1830;DHT22;914;48.118;11.600;2023-04-25T05:18:24;9.60;96.20
1830;DHT22;914;48.118;11.600;2023-04-25T05:20:50;9.40;96.50
1830;DHT22;914;48.118;11.600;2023-04-25T05:23:16;9.40;96.70
1830;DHT22;914;48.118;11.600;2023-04-25T05:25:42;9.40;96.90
1830;DHT22;914;48.118;11.600;2023-04-25T05:28:08;9.30;96.70
1830;DHT22;914;48.118;11.600;2023-04-25T05:30:34;9.40;97.10
1830;DHT22;914;48.118;11.600;2023-04-25T05:33:02;9.40;97.00
1830;DHT22;914;48.118;11.600;2023-04-25T05:35:28;9.30;97.00
1830;DHT22;914;48.118;11.600;2023-04-25T05:37:54;9.80;96.50
1830;DHT22;914;48.118;11.600;2023-04-25T05:40:20;9.50;96.50
1830;DHT22;914;48.118;11.600;2023-04-25T05:42:45;9.50;96.70
1830;DHT22;914;48.118;11.600;2023-04-25T05:45:11;9.40;97.20
1830;DHT22;914;48.118;11.600;2023-04-25T05:47:37;9.30;97.40
1830;DHT22;914;48.118;11.600;2023-04-25T05:50:03;9.50;97.50
1830;DHT22;914;48.118;11.600;2023-04-25T05:52:29;9.60;97.40
1830;DHT22;914;48.118;11.600;2023-04-25T05:54:55;9.80;96.70
1830;DHT22;914;48.118;11.600;2023-04-25T05:57:23;9.80;96.00
1830;DHT22;914;48.118;11.600;2023-04-25T05:59:50;9.80;96.60
1830;DHT22;914;48.118;11.600;2023-04-25T06:02:16;9.80;96.60
1830;DHT22;914;48.118;11.600;2023-04-25T06:04:42;9.60;96.40
1830;DHT22;914;48.118;11.600;2023-04-25T06:07:07;9.60;96.90
1830;DHT22;914;48.118;11.600;2023-04-25T06:09:34;9.60;97.40
1830;DHT22;914;48.118;11.600;2023-04-25T06:12:00;9.50;97.80
1830;DHT22;914;48.118;11.600;2023-04-25T06:14:26;9.10;96.80
1830;DHT22;914;48.118;11.600;2023-04-25T06:16:52;8.90;98.50
1830;DHT22;914;48.118;11.600;2023-04-25T06:19:17;8.70;99.50
1830;DHT22;914;48.118;11.600;2023-04-25T06:21:43;8.40;99.90
1830;DHT22;914;48.118;11.600;2023-04-25T06:24:09;8.20;99.90
1830;DHT22;914;48.118;11.600;2023-04-25T06:26:35;8.20;99.90
1830;DHT22;914;48.118;11.600;2023-04-25T06:29:01;8.10;99.90
1830;DHT22;914;48.118;11.600;2023-04-25T06:31:27;8.30;99.90
1830;DHT22;914;48.118;11.600;2023-04-25T06:33:54;8.50;99.90
1830;DHT22;914;48.118;11.600;2023-04-25T06:36:21;8.50;99.90
1830;DHT22;914;48.118;11.600;2023-04-25T06:38:54;8.90;99.90
1830;DHT22;914;48.118;11.600;2023-04-25T06:41:20;8.70;99.90
1830;DHT22;914;48.118;11.600;2023-04-25T06:43:46;8.70;99.90
1830;DHT22;914;48.118;11.600;2023-04-25T06:46:12;8.70;99.90
1830;DHT22;914;48.118;11.600;2023-04-25T06:48:37;9.00;99.90
1830;DHT22;914;48.118;11.600;2023-04-25T06:51:03;9.40;99.90
1830;DHT22;914;48.118;11.600;2023-04-25T06:53:29;9.10;99.90
1830;DHT22;914;48.118;11.600;2023-04-25T06:55:54;9.20;99.90
1830;DHT22;914;48.118;11.600;2023-04-25T06:58:20;9.40;99.90
1830;DHT22;914;48.118;11.600;2023-04-25T07:00:45;9.60;99.90
1830;DHT22;914;48.118;11.600;2023-04-25T07:03:11;9.60;99.90
1830;DHT22;914;48.118;11.600;2023-04-25T07:05:37;9.60;99.90
1830;DHT22;914;48.118;11.600;2023-04-25T07:08:03;9.50;99.90
1830;DHT22;914;48.118;11.600;2023-04-25T07:10:28;9.40;99.90
1830;DHT22;914;48.118;11.600;2023-04-25T07:12:54;9.50;99.90
1830;DHT22;914;48.118;11.600;2023-04-25T07:15:20;9.70;99.90
1830;DHT22;914;48.118;11.600;2023-04-25T07:17:45;9.70;99.90
1830;DHT22;914;48.118;11.600;2023-04-25T07:20:11;9.60;99.90
1830;DHT22;914;48.118;11.600;2023-04-25T07:22:37;9.70;99.90
1830;DHT22;914;48.118;11.600;2023-04-25T07:25:03;9.90;99.90
1830;DHT22;914;48.118;11.600;2023-04-25T07:27:30;10.10;99.90
1830;DHT22;914;48.118;11.600;2023-04-25T07:29:55;10.00;99.90
1830;DHT22;914;48.118;11.600;2023-04-25T07:32:21;9.90;99.90
1830;DHT22;914;48.118;11.600;2023-04-25T07:34:47;10.10;99.90
1830;DHT22;914;48.118;11.600;2023-04-25T07:37:13;10.10;99.90
1830;DHT22;914;48.118;11.600;2023-04-25T07:39:39;10.30;99.90
1830;DHT22;914;48.118;11.600;2023-04-25T07:42:05;10.30;99.80
1830;DHT22;914;48.118;11.600;2023-04-25T07:44:34;10.60;99.30
1830;DHT22;914;48.118;11.600;2023-04-25T07:47:06;10.60;98.80
1830;DHT22;914;48.118;11.600;2023-04-25T07:49:36;10.30;99.70
1830;DHT22;914;48.118;11.600;2023-04-25T07:52:04;10.50;98.40
1830;DHT22;914;48.118;11.600;2023-04-25T07:54:30;10.80;98.40
1830;DHT22;914;48.118;11.600;2023-04-25T07:56:56;10.80;97.90
1830;DHT22;914;48.118;11.600;2023-04-25T07:59:22;10.60;98.90
1830;DHT22;914;48.118;11.600;2023-04-25T08:01:48;10.90;99.30
1830;DHT22;914;48.118;11.600;2023-04-25T08:04:13;10.90;99.00
1830;DHT22;914;48.118;11.600;2023-04-25T08:06:39;10.60;99.70
1830;DHT22;914;48.118;11.600;2023-04-25T08:09:06;10.80;98.70
1830;DHT22;914;48.118;11.600;2023-04-25T08:11:32;10.90;98.20
1830;DHT22;914;48.118;11.600;2023-04-25T08:13:57;11.00;98.60
1830;DHT22;914;48.118;11.600;2023-04-25T08:16:23;11.30;99.80
1830;DHT22;914;48.118;11.600;2023-04-25T08:18:50;11.60;97.50
1830;DHT22;914;48.118;11.600;2023-04-25T08:21:15;12.00;97.10
1830;DHT22;914;48.118;11.600;2023-04-25T08:23:41;12.20;95.50
1830;DHT22;914;48.118;11.600;2023-04-25T08:26:06;12.10;95.30
1830;DHT22;914;48.118;11.600;2023-04-25T08:28:32;11.80;96.10
1830;DHT22;914;48.118;11.600;2023-04-25T08:30:58;12.20;95.80
1830;DHT22;914;48.118;11.600;2023-04-25T08:33:23;12.30;95.60
1830;DHT22;914;48.118;11.600;2023-04-25T08:35:49;11.80;94.00
1830;DHT22;914;48.118;11.600;2023-04-25T08:38:16;11.70;94.10
1830;DHT22;914;48.118;11.600;2023-04-25T08:40:43;11.80;94.00
1830;DHT22;914;48.118;11.600;2023-04-25T08:43:09;12.00;95.40
1830;DHT22;914;48.118;11.600;2023-04-25T08:45:39;12.20;94.50
1830;DHT22;914;48.118;11.600;2023-04-25T08:48:12;12.20;94.20
1830;DHT22;914;48.118;11.600;2023-04-25T08:50:57;12.50;94.70
1830;DHT22;914;48.118;11.600;2023-04-25T08:53:28;12.30;94.40
1830;DHT22;914;48.118;11.600;2023-04-25T08:55:56;12.20;95.10
1830;DHT22;914;48.118;11.600;2023-04-25T08:58:22;12.30;95.20
1830;DHT22;914;48.118;11.600;2023-04-25T09:00:49;12.40;94.00
1830;DHT22;914;48.118;11.600;2023-04-25T09:03:15;12.70;91.30
1830;DHT22;914;48.118;11.600;2023-04-25T09:05:41;13.10;90.50
1830;DHT22;914;48.118;11.600;2023-04-25T09:08:07;13.30;87.80
1830;DHT22;914;48.118;11.600;2023-04-25T09:10:34;13.20;89.20
1830;DHT22;914;48.118;11.600;2023-04-25T09:15:31;13.10;83.90
1830;DHT22;914;48.118;11.600;2023-04-25T09:17:57;13.00;83.40
1830;DHT22;914;48.118;11.600;2023-04-25T09:20:24;13.20;82.70
1830;DHT22;914;48.118;11.600;2023-04-25T09:23:04;13.50;82.40
1830;DHT22;914;48.118;11.600;2023-04-25T09:25:37;13.50;79.40
1830;DHT22;914;48.118;11.600;2023-04-25T09:28:05;13.50;83.50
1830;DHT22;914;48.118;11.600;2023-04-25T09:30:35;13.70;81.40
1830;DHT22;914;48.118;11.600;2023-04-25T09:35:35;13.60;81.10
1830;DHT22;914;48.118;11.600;2023-04-25T09:38:07;13.70;81.80
1830;DHT22;914;48.118;11.600;2023-04-25T09:40:33;13.50;80.50
1830;DHT22;914;48.118;11.600;2023-04-25T09:42:59;13.60;79.60
1830;DHT22;914;48.118;11.600;2023-04-25T09:45:24;13.30;81.80
1830;DHT22;914;48.118;11.600;2023-04-25T09:47:50;13.60;82.20
1830;DHT22;914;48.118;11.600;2023-04-25T09:50:20;13.70;81.60
1830;DHT22;914;48.118;11.600;2023-04-25T09:53:05;13.90;79.30
1830;DHT22;914;48.118;11.600;2023-04-25T09:55:34;14.20;80.20
1830;DHT22;914;48.118;11.600;2023-04-25T09:58:04;14.30;78.20
1830;DHT22;914;48.118;11.600;2023-04-25T10:00:32;13.70;78.90
1830;DHT22;914;48.118;11.600;2023-04-25T10:03:02;13.50;78.00
1830;DHT22;914;48.118;11.600;2023-04-25T10:05:30;13.40;80.30
1830;DHT22;914;48.118;11.600;2023-04-25T10:08:00;13.70;79.20
1830;DHT22;914;48.118;11.600;2023-04-25T10:10:29;13.60;78.00
1830;DHT22;914;48.118;11.600;2023-04-25T10:12:58;13.70;77.50
1830;DHT22;914;48.118;11.600;2023-04-25T10:15:24;13.60;78.40
1830;DHT22;914;48.118;11.600;2023-04-25T10:17:51;13.50;79.40
1830;DHT22;914;48.118;11.600;2023-04-25T10:20:17;13.80;79.90
1830;DHT22;914;48.118;11.600;2023-04-25T10:22:45;13.50;79.00
1830;DHT22;914;48.118;11.600;2023-04-25T10:25:12;13.60;80.50
1830;DHT22;914;48.118;11.600;2023-04-25T10:27:38;13.80;82.50
1830;DHT22;914;48.118;11.600;2023-04-25T10:30:07;14.20;82.50
1830;DHT22;914;48.118;11.600;2023-04-25T10:32:36;14.50;80.90
1830;DHT22;914;48.118;11.600;2023-04-25T10:35:23;14.60;78.30
1830;DHT22;914;48.118;11.600;2023-04-25T10:38:08;14.50;77.00
1830;DHT22;914;48.118;11.600;2023-04-25T10:40:35;14.50;77.00
1830;DHT22;914;48.118;11.600;2023-04-25T10:43:39;14.20;77.10
1830;DHT22;914;48.118;11.600;2023-04-25T10:46:17;13.20;89.30
1830;DHT22;914;48.118;11.600;2023-04-25T10:48:51;11.60;94.90
1830;DHT22;914;48.118;11.600;2023-04-25T10:51:24;10.60;97.60
1830;DHT22;914;48.118;11.600;2023-04-25T10:53:58;9.80;99.90
1830;DHT22;914;48.118;11.600;2023-04-25T10:56:29;9.60;99.90
1830;DHT22;914;48.118;11.600;2023-04-25T10:59:10;9.60;99.90
1830;DHT22;914;48.118;11.600;2023-04-25T11:01:41;9.70;99.90
1830;DHT22;914;48.118;11.600;2023-04-25T11:04:20;9.80;99.90
1830;DHT22;914;48.118;11.600;2023-04-25T11:09:17;10.10;99.90
1830;DHT22;914;48.118;11.600;2023-04-25T11:11:48;10.50;99.90
1830;DHT22;914;48.118;11.600;2023-04-25T11:14:20;10.90;99.90
1830;DHT22;914;48.118;11.600;2023-04-25T11:16:45;10.80;99.90
1830;DHT22;914;48.118;11.600;2023-04-25T11:19:11;10.90;99.00
1830;DHT22;914;48.118;11.600;2023-04-25T11:21:37;10.70;99.50
1830;DHT22;914;48.118;11.600;2023-04-25T11:24:03;10.70;99.90
1830;DHT22;914;48.118;11.600;2023-04-25T11:26:30;10.80;97.70
1830;DHT22;914;48.118;11.600;2023-04-25T11:28:59;10.70;96.60
1830;DHT22;914;48.118;11.600;2023-04-25T11:31:29;11.10;97.00
1830;DHT22;914;48.118;11.600;2023-04-25T11:33:57;11.50;96.50
1830;DHT22;914;48.118;11.600;2023-04-25T11:36:24;11.30;95.70
1830;DHT22;914;48.118;11.600;2023-04-25T11:38:51;11.20;93.80
1830;DHT22;914;48.118;11.600;2023-04-25T11:41:20;11.20;94.80
1830;DHT22;914;48.118;11.600;2023-04-25T11:43:48;11.10;95.70
1830;DHT22;914;48.118;11.600;2023-04-25T11:46:14;10.60;95.60
1830;DHT22;914;48.118;11.600;2023-04-25T11:48:43;10.70;97.00
1830;DHT22;914;48.118;11.600;2023-04-25T11:51:11;10.50;96.50
1830;DHT22;914;48.118;11.600;2023-04-25T11:53:41;10.80;96.80
1830;DHT22;914;48.118;11.600;2023-04-25T11:56:11;10.80;97.00
1830;DHT22;914;48.118;11.600;2023-04-25T11:58:56;10.60;98.70
1830;DHT22;914;48.118;11.600;2023-04-25T12:01:33;10.60;98.70
1830;DHT22;914;48.118;11.600;2023-04-25T12:04:17;10.40;99.10
1830;DHT22;914;48.118;11.600;2023-04-25T12:06:43;10.30;99.70
1830;DHT22;914;48.118;11.600;2023-04-25T12:09:12;10.20;99.50
1830;DHT22;914;48.118;11.600;2023-04-25T12:11:48;10.10;99.90
1830;DHT22;914;48.118;11.600;2023-04-25T12:14:22;10.30;99.70
1830;DHT22;914;48.118;11.600;2023-04-25T12:16:54;10.10;99.70
1830;DHT22;914;48.118;11.600;2023-04-25T12:19:20;9.90;99.90
1830;DHT22;914;48.118;11.600;2023-04-25T12:21:47;10.30;99.90
1830;DHT22;914;48.118;11.600;2023-04-25T12:24:18;10.60;99.30
1830;DHT22;914;48.118;11.600;2023-04-25T12:26:51;10.30;98.90
1830;DHT22;914;48.118;11.600;2023-04-25T12:29:22;9.90;99.90
1830;DHT22;914;48.118;11.600;2023-04-25T12:31:49;10.10;99.90
1830;DHT22;914;48.118;11.600;2023-04-25T12:34:15;10.30;99.20
1830;DHT22;914;48.118;11.600;2023-04-25T12:36:41;10.30;99.60
1830;DHT22;914;48.118;11.600;2023-04-25T12:39:07;10.30;99.80
1830;DHT22;914;48.118;11.600;2023-04-25T12:41:34;10.30;99.80
1830;DHT22;914;48.118;11.600;2023-04-25T12:43:59;10.30;99.90
1830;DHT22;914;48.118;11.600;2023-04-25T12:46:25;10.50;99.90
1830;DHT22;914;48.118;11.600;2023-04-25T12:48:51;10.60;98.30
1830;DHT22;914;48.118;11.600;2023-04-25T12:51:17;10.40;98.30
1830;DHT22;914;48.118;11.600;2023-04-25T12:53:42;10.30;98.90
1830;DHT22;914;48.118;11.600;2023-04-25T12:56:08;10.40;99.40
1830;DHT22;914;48.118;11.600;2023-04-25T12:58:34;10.30;99.90
1830;DHT22;914;48.118;11.600;2023-04-25T13:00:59;10.90;98.80
1830;DHT22;914;48.118;11.600;2023-04-25T13:03:25;10.40;99.30
1830;DHT22;914;48.118;11.600;2023-04-25T13:05:51;10.60;99.20
1830;DHT22;914;48.118;11.600;2023-04-25T13:08:18;10.50;99.20
1830;DHT22;914;48.118;11.600;2023-04-25T13:10:44;10.40;99.30
1830;DHT22;914;48.118;11.600;2023-04-25T13:13:10;10.40;99.90
1830;DHT22;914;48.118;11.600;2023-04-25T13:15:36;10.50;99.60
1830;DHT22;914;48.118;11.600;2023-04-25T13:18:03;10.20;98.30
1830;DHT22;914;48.118;11.600;2023-04-25T13:20:29;10.20;99.10
1830;DHT22;914;48.118;11.600;2023-04-25T13:22:55;10.10;99.20
1830;DHT22;914;48.118;11.600;2023-04-25T13:25:21;10.30;99.90
1830;DHT22;914;48.118;11.600;2023-04-25T13:27:47;10.20;99.60
1830;DHT22;914;48.118;11.600;2023-04-25T13:30:13;10.30;99.50
1830;DHT22;914;48.118;11.600;2023-04-25T13:32:39;10.20;99.90
1830;DHT22;914;48.118;11.600;2023-04-25T13:35:07;10.10;99.60
1830;DHT22;914;48.118;11.600;2023-04-25T13:37:34;10.20;99.00
1830;DHT22;914;48.118;11.600;2023-04-25T13:40:02;9.80;99.90
1830;DHT22;914;48.118;11.600;2023-04-25T13:42:33;9.60;99.90
1830;DHT22;914;48.118;11.600;2023-04-25T13:44:58;9.60;99.90
1830;DHT22;914;48.118;11.600;2023-04-25T13:47:27;9.80;99.90
1830;DHT22;914;48.118;11.600;2023-04-25T13:49:53;9.80;99.90
1830;DHT22;914;48.118;11.600;2023-04-25T13:52:18;9.50;99.90
1830;DHT22;914;48.118;11.600;2023-04-25T13:54:44;9.10;99.90
1830;DHT22;914;48.118;11.600;2023-04-25T13:57:10;8.90;99.90
1830;DHT22;914;48.118;11.600;2023-04-25T13:59:37;9.00;99.90
1830;DHT22;914;48.118;11.600;2023-04-25T14:02:03;8.70;99.90
1830;DHT22;914;48.118;11.600;2023-04-25T14:04:29;8.80;99.90
1830;DHT22;914;48.118;11.600;2023-04-25T14:06:55;8.90;99.90
1830;DHT22;914;48.118;11.600;2023-04-25T14:09:21;8.80;99.90
1830;DHT22;914;48.118;11.600;2023-04-25T14:11:54;8.80;99.90
1830;DHT22;914;48.118;11.600;2023-04-25T14:14:21;9.00;99.90
1830;DHT22;914;48.118;11.600;2023-04-25T14:16:48;9.30;99.90
1830;DHT22;914;48.118;11.600;2023-04-25T14:19:14;9.10;99.90
1830;DHT22;914;48.118;11.600;2023-04-25T14:21:40;9.00;99.90
1830;DHT22;914;48.118;11.600;2023-04-25T14:24:08;8.90;99.90
1830;DHT22;914;48.118;11.600;2023-04-25T14:26:34;9.00;99.90
1830;DHT22;914;48.118;11.600;2023-04-25T14:29:06;9.00;99.90
1830;DHT22;914;48.118;11.600;2023-04-25T14:31:33;8.70;99.90
1830;DHT22;914;48.118;11.600;2023-04-25T14:33:59;8.60;99.90
1830;DHT22;914;48.118;11.600;2023-04-25T14:36:25;9.00;99.90
1830;DHT22;914;48.118;11.600;2023-04-25T14:38:52;9.50;99.90
1830;DHT22;914;48.118;11.600;2023-04-25T14:41:18;9.40;99.90
1830;DHT22;914;48.118;11.600;2023-04-25T14:43:43;9.60;99.90
1830;DHT22;914;48.118;11.600;2023-04-25T14:46:10;9.70;99.90
1830;DHT22;914;48.118;11.600;2023-04-25T14:48:36;9.80;99.90
1830;DHT22;914;48.118;11.600;2023-04-25T14:51:02;10.30;99.90
1830;DHT22;914;48.118;11.600;2023-04-25T14:53:28;10.30;99.90
1830;DHT22;914;48.118;11.600;2023-04-25T14:55:54;10.30;99.90
1830;DHT22;914;48.118;11.600;2023-04-25T14:58:20;10.50;99.90
1830;DHT22;914;48.118;11.600;2023-04-25T15:00:46;10.50;99.90
1830;DHT22;914;48.118;11.600;2023-04-25T15:03:12;10.60;99.90
1830;DHT22;914;48.118;11.600;2023-04-25T15:05:42;10.80;99.90
1830;DHT22;914;48.118;11.600;2023-04-25T15:08:08;10.80;99.90
1830;DHT22;914;48.118;11.600;2023-04-25T15:10:34;10.80;99.70
1830;DHT22;914;48.118;11.600;2023-04-25T15:13:00;10.60;99.90
1830;DHT22;914;48.118;11.600;2023-04-25T15:15:26;10.80;99.90
1830;DHT22;914;48.118;11.600;2023-04-25T15:17:52;11.30;99.90
1830;DHT22;914;48.118;11.600;2023-04-25T15:20:22;10.70;99.90
1830;DHT22;914;48.118;11.600;2023-04-25T15:22:48;10.30;99.90
1830;DHT22;914;48.118;11.600;2023-04-25T15:25:16;10.10;99.90
1830;DHT22;914;48.118;11.600;2023-04-25T15:27:45;10.10;99.90
1830;DHT22;914;48.118;11.600;2023-04-25T15:30:15;10.20;99.90
1830;DHT22;914;48.118;11.600;2023-04-25T15:32:42;10.10;99.90
1830;DHT22;914;48.118;11.600;2023-04-25T15:35:09;10.50;99.90
1830;DHT22;914;48.118;11.600;2023-04-25T15:37:35;10.60;99.90
1830;DHT22;914;48.118;11.600;2023-04-25T15:42:45;10.70;99.90
1830;DHT22;914;48.118;11.600;2023-04-25T15:45:20;10.60;99.90
1830;DHT22;914;48.118;11.600;2023-04-25T15:47:46;10.80;99.90
1830;DHT22;914;48.118;11.600;2023-04-25T15:50:13;10.60;99.90
1830;DHT22;914;48.118;11.600;2023-04-25T15:52:40;10.70;99.90
1830;DHT22;914;48.118;11.600;2023-04-25T15:55:06;10.70;99.90
1830;DHT22;914;48.118;11.600;2023-04-25T15:57:34;10.50;99.50
1830;DHT22;914;48.118;11.600;2023-04-25T16:00:01;10.40;99.90
1830;DHT22;914;48.118;11.600;2023-04-25T16:02:30;10.30;99.90
1830;DHT22;914;48.118;11.600;2023-04-25T16:04:55;10.60;99.90
1830;DHT22;914;48.118;11.600;2023-04-25T16:07:22;10.80;99.90
1830;DHT22;914;48.118;11.600;2023-04-25T16:09:48;10.80;99.90
1830;DHT22;914;48.118;11.600;2023-04-25T16:12:15;10.60;99.90
1830;DHT22;914;48.118;11.600;2023-04-25T16:14:42;10.60;99.90
1830;DHT22;914;48.118;11.600;2023-04-25T16:17:07;10.50;99.90